Time;durP1;ratioP1;P1;durP2;ratioP2;P2;SDS_P1;SDS_P2;PMS_P1;PMS_P2;Temp;Humidity;BMP_temperature;BMP_pressure;BME280_temperature;BME280_humidity;BME280_pressure;Samples;Min_cycle;Max_cycle;Signal;HPM_P1;HPM_P2
2022/12/17 13:09:26;;;;;;;57.77;25.20;;;;;0.40;102021.00;;;;9876947;30;20645;-78
2022/12/17 13:14:57;;;;;;;59.87;26.50;;;;;0.20;102009.00;;;;9845815;30;20204;-78
2022/12/17 13:20:19;;;;;;;54.87;25.20;;;;;0.30;101999.00;;;;9844806;30;20259;-78
2022/12/17 13:25:22;;;;;;;53.63;23.27;;;;;0.20;101984.00;;;;9843261;30;20212;-78
2022/12/17 13:30:34;;;;;;;51.13;23.50;;;;;0.00;101985.00;;;;9828902;30;20572;-78
2022/12/17 13:35:54;;;;;;;56.77;24.80;;;;;-0.10;101979.00;;;;9834051;30;20205;-78
2022/12/17 13:41:30;;;;;;;51.27;23.33;;;;;-0.40;101976.00;;;;9843793;30;20224;-77
2022/12/17 13:46:44;;;;;;;59.47;25.43;;;;;-0.60;101975.00;;;;9842212;30;20211;-78
2022/12/17 13:52:03;;;;;;;50.07;22.13;;;;;-0.60;101980.00;;;;9841978;30;20199;-78
2022/12/17 13:57:18;;;;;;;41.23;20.57;;;;;-0.80;101984.00;;;;9829925;30;20254;-78
2022/12/17 14:02:29;;;;;;;51.83;22.77;;;;;-1.20;101981.00;;;;9813759;30;20231;-78
2022/12/17 14:07:34;;;;;;;45.80;20.77;;;;;-1.40;101986.00;;;;9804356;30;20232;-78
2022/12/17 14:12:35;;;;;;;48.57;21.13;;;;;-1.60;101995.00;;;;9842286;30;20201;-78
2022/12/17 14:17:43;;;;;;;44.43;20.17;;;;;-1.70;101984.00;;;;9818586;30;20208;-78
2022/12/17 14:22:52;;;;;;;51.63;22.07;;;;;-1.90;102001.00;;;;9804821;30;20275;-78
2022/12/17 14:27:57;;;;;;;55.80;19.97;;;;;-2.00;101997.00;;;;9789825;30;20200;-78
2022/12/17 14:32:59;;;;;;;49.87;19.60;;;;;-2.10;101994.00;;;;9832499;30;20352;-78
2022/12/17 14:38:03;;;;;;;53.00;20.57;;;;;-2.10;102003.00;;;;9780901;30;20215;-78
2022/12/17 14:43:06;;;;;;;54.47;20.37;;;;;-2.20;101989.00;;;;9832342;30;20271;-78
2022/12/17 14:48:14;;;;;;;64.47;24.43;;;;;-2.20;102000.00;;;;9822135;30;20274;-78
2022/12/17 14:53:26;;;;;;;50.00;19.73;;;;;-2.30;101999.00;;;;9811392;30;20568;-78
2022/12/17 14:58:28;;;;;;;49.40;21.00;;;;;-2.30;102004.00;;;;9839541;30;20216;-78
2022/12/17 15:03:36;;;;;;;45.63;21.00;;;;;-2.40;101995.00;;;;9808249;30;20236;-78
2022/12/17 15:08:45;;;;;;;46.67;17.43;;;;;-2.50;102002.00;;;;9802156;30;20578;-78
2022/12/17 15:13:47;;;;;;;46.50;21.30;;;;;-2.60;102007.00;;;;9787976;30;20193;-78
2022/12/17 15:18:57;;;;;;;50.93;23.00;;;;;-2.70;102000.00;;;;9836041;30;20216;-78
2022/12/17 15:23:59;;;;;;;46.10;18.17;;;;;-2.90;102013.00;;;;9838521;30;20211;-77
2022/12/17 15:29:01;;;;;;;38.77;18.63;;;;;-3.00;102015.00;;;;9815141;30;20739;-78
2022/12/17 15:34:03;;;;;;;46.73;18.67;;;;;-3.20;102022.00;;;;9822994;30;20200;-78
2022/12/17 15:39:05;;;;;;;44.43;19.10;;;;;-3.30;102040.00;;;;9806589;30;20209;-78
2022/12/17 15:44:07;;;;;;;48.40;19.03;;;;;-3.40;102035.00;;;;9802328;30;20624;-78
2022/12/17 15:49:09;;;;;;;44.60;18.17;;;;;-3.40;102063.00;;;;9812571;30;20196;-78
2022/12/17 15:54:11;;;;;;;45.83;20.70;;;;;-3.50;102057.00;;;;9836907;30;20777;-78
2022/12/17 15:59:13;;;;;;;39.23;15.93;;;;;-3.40;102069.00;;;;9799937;30;20217;-78
2022/12/17 16:04:15;;;;;;;39.13;17.23;;;;;-3.40;102079.00;;;;9820799;30;20820;-79
2022/12/17 16:09:25;;;;;;;52.77;20.77;;;;;-3.40;102093.00;;;;9854966;30;20246;-79
2022/12/17 16:14:27;;;;;;;50.93;18.97;;;;;-3.40;102101.00;;;;9810260;30;20302;-79
2022/12/17 16:19:29;;;;;;;48.83;17.57;;;;;-3.30;102109.00;;;;9822089;30;20308;-78
2022/12/17 16:24:31;;;;;;;52.83;19.23;;;;;-3.30;102113.00;;;;9818961;30;20215;-78
2022/12/17 16:29:33;;;;;;;53.73;21.00;;;;;-3.30;102125.00;;;;9842974;30;20231;-79
2022/12/17 16:34:35;;;;;;;41.77;15.57;;;;;-3.30;102132.00;;;;9793198;30;20205;-78
2022/12/17 16:39:37;;;;;;;48.70;16.10;;;;;-3.30;102137.00;;;;9814120;30;20676;-78
2022/12/17 16:44:39;;;;;;;43.50;16.90;;;;;-3.30;102132.00;;;;9816795;30;20211;-78
2022/12/17 16:49:41;;;;;;;32.67;13.77;;;;;-3.30;102140.00;;;;9819592;30;20197;-79
2022/12/17 16:54:44;;;;;;;49.70;17.33;;;;;-3.30;102135.00;;;;9826200;30;20205;-79
2022/12/17 16:59:46;;;;;;;52.13;18.00;;;;;-3.30;102147.00;;;;9810192;30;21039;-78
2022/12/17 17:04:48;;;;;;;38.10;16.83;;;;;-3.30;102150.00;;;;9831724;30;20241;-79
2022/12/17 17:09:49;;;;;;;37.43;16.10;;;;;-3.30;102144.00;;;;9811111;30;20200;-79
2022/12/17 17:14:51;;;;;;;37.17;15.27;;;;;-3.30;102140.00;;;;9819200;30;20677;-80
2022/12/17 17:19:53;;;;;;;37.87;13.47;;;;;-3.40;102119.00;;;;9848380;30;20724;-80
2022/12/17 17:24:55;;;;;;;43.63;18.03;;;;;-3.50;102118.00;;;;9845352;30;20224;-79
2022/12/17 17:29:58;;;;;;;28.37;13.57;;;;;-3.60;102129.00;;;;9835175;30;20192;-79
2022/12/17 17:35:05;;;;;;;33.47;15.03;;;;;-3.60;102115.00;;;;9803467;30;20200;-79
2022/12/17 17:40:09;;;;;;;40.27;15.53;;;;;-3.70;102101.00;;;;9815222;30;20223;-80
2022/12/17 17:45:10;;;;;;;42.37;16.57;;;;;-3.70;102109.00;;;;9841516;30;20316;-80
2022/12/17 17:50:12;;;;;;;41.83;17.20;;;;;-3.80;102107.00;;;;9844766;30;20201;-80
2022/12/17 17:55:14;;;;;;;32.17;15.87;;;;;-3.90;102108.00;;;;9816536;30;20232;-80
2022/12/17 18:00:16;;;;;;;50.07;17.07;;;;;-3.90;102100.00;;;;9803716;30;20225;-79
2022/12/17 18:05:19;;;;;;;33.87;13.37;;;;;-4.00;102099.00;;;;9812039;30;20229;-79
2022/12/17 18:10:21;;;;;;;32.07;13.13;;;;;-4.00;102106.00;;;;9825432;30;20215;-79
2022/12/17 18:15:23;;;;;;;29.80;13.57;;;;;-4.10;102105.00;;;;9840242;30;20692;-80
2022/12/17 18:20:25;;;;;;;31.30;14.13;;;;;-4.20;102107.00;;;;9823562;30;20217;-80
2022/12/17 18:25:26;;;;;;;34.80;14.90;;;;;-4.20;102119.00;;;;9821009;30;20716;-80
2022/12/17 18:30:37;;;;;;;30.40;14.10;;;;;-4.20;102100.00;;;;9821543;30;20206;-79
2022/12/17 18:35:38;;;;;;;39.13;17.17;;;;;-4.30;102102.00;;;;9802842;30;20228;-79
2022/12/17 18:40:40;;;;;;;34.10;14.70;;;;;-4.30;102101.00;;;;9825466;30;20387;-79
2022/12/17 18:45:42;;;;;;;38.80;16.73;;;;;-4.30;102109.00;;;;9832434;30;20231;-79
2022/12/17 18:50:46;;;;;;;30.83;14.30;;;;;-4.30;102118.00;;;;9811442;30;20262;-79
2022/12/17 18:55:48;;;;;;;45.90;15.90;;;;;-4.20;102127.00;;;;9826250;30;20216;-80
2022/12/17 19:00:54;;;;;;;38.67;13.97;;;;;-4.30;102120.00;;;;9816719;30;20728;-80
2022/12/17 19:07:04;;;;;;;;;;;;;;;;;;;;;
2022/12/17 19:12:28;;;;;;;34.43;14.20;;;;;-4.40;102128.00;;;;9818354;30;20208;-80
2022/12/17 19:17:30;;;;;;;34.77;14.87;;;;;-4.50;102131.00;;;;9827781;30;20195;-80
2022/12/17 19:22:33;;;;;;;31.23;13.57;;;;;-4.50;102120.00;;;;9826284;30;20243;-80
2022/12/17 19:27:35;;;;;;;34.30;14.97;;;;;-4.60;102121.00;;;;9847926;30;20216;-80
2022/12/17 19:32:37;;;;;;;35.20;13.50;;;;;-4.70;102126.00;;;;9815825;30;20550;-79
2022/12/17 19:37:39;;;;;;;36.20;14.33;;;;;-4.70;102133.00;;;;9872546;30;20204;-79
2022/12/17 19:42:41;;;;;;;36.50;15.80;;;;;-4.70;102146.00;;;;9811943;30;20221;-79
2022/12/17 19:47:44;;;;;;;31.73;13.37;;;;;-4.70;102131.00;;;;9800250;30;20230;-79
2022/12/17 19:52:46;;;;;;;34.00;13.73;;;;;-4.70;102130.00;;;;9807320;30;20201;-79
2022/12/17 19:57:49;;;;;;;33.83;13.63;;;;;-4.70;102131.00;;;;9837654;30;20290;-79
2022/12/17 20:02:51;;;;;;;35.43;15.60;;;;;-4.70;102139.00;;;;9830617;30;20208;-79
2022/12/17 20:07:53;;;;;;;42.17;15.53;;;;;-4.70;102130.00;;;;9827054;30;20232;-79
2022/12/17 20:12:54;;;;;;;37.63;15.73;;;;;-4.70;102126.00;;;;9833301;30;20200;-80
2022/12/17 20:17:56;;;;;;;35.37;14.93;;;;;-4.70;102112.00;;;;9830479;30;20216;-80
2022/12/17 20:22:58;;;;;;;34.33;13.70;;;;;-4.80;102101.00;;;;9819721;30;20216;-80
2022/12/17 20:28:00;;;;;;;36.83;13.13;;;;;-4.90;102103.00;;;;9833761;30;20216;-80
2022/12/17 20:33:02;;;;;;;33.13;14.73;;;;;-5.00;102101.00;;;;9852526;30;20347;-80
2022/12/17 20:38:04;;;;;;;33.50;14.17;;;;;-5.00;102106.00;;;;9819959;30;20208;-79
2022/12/17 20:43:07;;;;;;;38.73;13.60;;;;;-5.10;102115.00;;;;9813687;30;20212;-80
2022/12/17 20:48:09;;;;;;;33.80;13.97;;;;;-5.10;102113.00;;;;9840195;30;20299;-80
2022/12/17 20:53:11;;;;;;;39.80;15.20;;;;;-5.10;102116.00;;;;9851392;30;20279;-79
2022/12/17 20:58:14;;;;;;;46.03;15.53;;;;;-5.10;102122.00;;;;9833720;30;21582;-80
2022/12/17 21:03:16;;;;;;;41.97;16.27;;;;;-5.10;102137.00;;;;9842546;30;20208;-80
2022/12/17 21:08:18;;;;;;;28.37;11.97;;;;;-5.20;102131.00;;;;9860979;30;20212;-80
2022/12/17 21:13:29;;;;;;;36.23;15.53;;;;;-5.20;102138.00;;;;9824561;30;20258;-80
2022/12/17 21:18:32;;;;;;;46.77;17.33;;;;;-5.30;102119.00;;;;9835794;30;20209;-79
2022/12/17 21:23:35;;;;;;;36.30;12.67;;;;;-5.30;102129.00;;;;9834068;30;20242;-79
2022/12/17 21:28:38;;;;;;;32.93;15.50;;;;;-5.30;102125.00;;;;9843203;30;20197;-79
2022/12/17 21:33:41;;;;;;;31.03;12.70;;;;;-5.30;102140.00;;;;9836849;30;20620;-79
2022/12/17 21:38:43;;;;;;;27.57;13.57;;;;;-5.30;102142.00;;;;9840601;30;20204;-79
2022/12/17 21:43:46;;;;;;;44.17;13.23;;;;;-5.30;102149.00;;;;9852515;30;20204;-79
2022/12/17 21:48:48;;;;;;;31.77;15.70;;;;;-5.40;102130.00;;;;9820274;30;20205;-79
2022/12/17 21:53:54;;;;;;;30.97;13.03;;;;;-5.50;102130.00;;;;9836497;30;20200;-79
2022/12/17 21:58:58;;;;;;;29.63;13.23;;;;;-5.50;102141.00;;;;9792374;30;20307;-79
2022/12/17 22:04:02;;;;;;;34.77;15.17;;;;;-5.60;102144.00;;;;9815569;30;20231;-80
2022/12/17 22:09:06;;;;;;;27.63;14.00;;;;;-5.60;102131.00;;;;9841771;30;20280;-80
2022/12/17 22:14:22;;;;;;;30.67;12.23;;;;;-5.70;102118.00;;;;9811407;30;20695;-80
2022/12/17 22:19:24;;;;;;;38.40;14.97;;;;;-5.70;102120.00;;;;9840046;30;20212;-80
2022/12/17 22:24:26;;;;;;;32.00;14.07;;;;;-5.80;102119.00;;;;9818293;30;20209;-80
2022/12/17 22:34:53;;;;;;;32.87;13.60;;;;;-5.90;102121.00;;;;9850275;30;20799;-80
2022/12/17 22:40:14;;;;;;;30.87;14.20;;;;;-6.00;102132.00;;;;9843500;30;20247;-79
2022/12/17 22:45:38;;;;;;;44.17;16.93;;;;;-6.00;102137.00;;;;9836142;30;20230;-79
2022/12/17 22:50:41;;;;;;;36.57;14.40;;;;;-6.10;102115.00;;;;9841999;30;20352;-79
2022/12/17 22:56:04;;;;;;;37.53;15.80;;;;;-6.20;102114.00;;;;9835775;30;20196;-79
2022/12/17 23:01:25;;;;;;;36.43;15.57;;;;;-6.20;102115.00;;;;9831829;30;20296;-79
2022/12/17 23:06:27;;;;;;;32.33;14.83;;;;;-6.30;102112.00;;;;9827811;30;20278;-80
2022/12/17 23:11:30;;;;;;;35.37;17.43;;;;;-6.40;102106.00;;;;9831405;30;20232;-79
2022/12/17 23:16:32;;;;;;;35.47;15.57;;;;;-6.40;102119.00;;;;9817584;30;20200;-79
2022/12/17 23:21:34;;;;;;;40.13;16.07;;;;;-6.50;102122.00;;;;9805792;30;20216;-79
2022/12/17 23:26:36;;;;;;;36.07;14.30;;;;;-6.50;102107.00;;;;9824121;30;20224;-80
2022/12/17 23:31:39;;;;;;;29.50;15.13;;;;;-6.60;102091.00;;;;9821065;30;20659;-79
2022/12/17 23:36:41;;;;;;;36.87;15.10;;;;;-6.70;102094.00;;;;9849158;30;20273;-79
2022/12/17 23:41:43;;;;;;;39.23;14.70;;;;;-6.80;102080.00;;;;9831024;30;20221;-79
2022/12/17 23:46:45;;;;;;;39.03;13.67;;;;;-6.90;102075.00;;;;9850552;30;20266;-79
2022/12/17 23:51:47;;;;;;;24.27;13.20;;;;;-7.00;102064.00;;;;9831425;30;20200;-80
2022/12/17 23:56:49;;;;;;;30.40;12.40;;;;;-7.10;102075.00;;;;9833316;30;20188;-79
